createdAt,value
2022-10-26T00:00:18.328Z,99.99
2022-10-26T00:00:57.316Z,99.99
2022-10-26T00:02:18.403Z,99.99
2022-10-26T00:02:57.227Z,99.99
2022-10-26T00:03:57.195Z,99.99
2022-10-26T00:05:18.172Z,99.99
2022-10-26T00:05:57.128Z,99.99
2022-10-26T00:07:18.091Z,99.90
2022-10-26T00:07:57.059Z,99.90
2022-10-26T00:08:57.025Z,99.90
2022-10-26T00:10:17.984Z,99.90
2022-10-26T00:10:56.954Z,99.99
2022-10-26T00:12:17.916Z,99.99
2022-10-26T00:12:56.893Z,99.90
2022-10-26T00:13:56.852Z,99.99
2022-10-26T00:15:17.819Z,99.99
2022-10-26T00:15:56.860Z,99.99
2022-10-26T00:17:17.754Z,99.99
2022-10-26T00:17:56.729Z,99.99
2022-10-26T00:18:56.681Z,99.99
2022-10-26T00:20:17.642Z,99.99
2022-10-26T00:20:56.619Z,99.99
2022-10-26T00:22:17.576Z,99.99
2022-10-26T00:22:56.548Z,99.99
2022-10-26T00:23:56.510Z,99.99
2022-10-26T00:25:17.538Z,99.99
2022-10-26T00:25:56.450Z,99.99
2022-10-26T00:27:17.404Z,99.99
2022-10-26T00:27:56.379Z,99.99
2022-10-26T00:28:56.344Z,99.99
2022-10-26T00:30:17.310Z,99.99
2022-10-26T00:30:56.279Z,99.99
2022-10-26T00:32:17.236Z,99.99
2022-10-26T00:32:56.209Z,99.99
2022-10-26T00:33:56.181Z,99.99
2022-10-26T00:35:23.090Z,99.99
2022-10-26T00:35:56.103Z,99.99
2022-10-26T00:37:17.072Z,99.99
2022-10-26T00:37:56.089Z,99.99
2022-10-26T00:38:56.004Z,99.99
2022-10-26T00:40:16.985Z,99.99
2022-10-26T00:42:16.915Z,99.99
2022-10-26T00:42:55.907Z,99.99
2022-10-26T00:43:55.913Z,99.99
2022-10-26T00:45:16.798Z,99.99
2022-10-26T00:45:55.767Z,99.99
2022-10-26T00:47:16.732Z,99.99
2022-10-26T00:47:55.731Z,99.99
2022-10-26T00:48:55.670Z,99.99
2022-10-26T00:50:16.624Z,99.99
2022-10-26T00:50:55.594Z,99.99
2022-10-26T00:52:16.570Z,99.99
2022-10-26T00:52:55.526Z,99.99
2022-10-26T00:53:55.498Z,99.99
2022-10-26T00:55:16.475Z,99.99
2022-10-26T00:55:55.431Z,99.99
2022-10-26T00:57:16.393Z,99.99
2022-10-26T00:57:55.365Z,99.99
2022-10-26T00:58:55.358Z,99.99
2022-10-26T01:00:16.303Z,99.99
2022-10-26T01:00:55.259Z,99.99
2022-10-26T01:02:16.223Z,99.99
2022-10-26T01:02:55.189Z,99.99
2022-10-26T01:03:55.199Z,99.99
2022-10-26T01:05:16.127Z,99.99
2022-10-26T01:05:55.089Z,99.99
2022-10-26T01:07:16.087Z,99.99
2022-10-26T01:07:55.019Z,99.99
2022-10-26T01:08:54.989Z,99.99
2022-10-26T01:10:15.974Z,99.99
2022-10-26T01:10:54.920Z,99.99
2022-10-26T01:12:15.892Z,99.99
2022-10-26T01:12:54.862Z,99.99
2022-10-26T01:13:54.816Z,99.99
2022-10-26T01:15:15.780Z,99.99
2022-10-26T01:15:54.805Z,99.99
2022-10-26T01:17:15.732Z,99.99
2022-10-26T01:17:54.680Z,99.99
2022-10-26T01:18:54.652Z,99.99
2022-10-26T01:20:15.611Z,99.99
2022-10-26T01:20:54.583Z,99.99
2022-10-26T01:22:15.547Z,99.99
2022-10-26T01:22:54.510Z,99.99
2022-10-26T01:23:54.483Z,99.99
2022-10-26T01:25:15.466Z,99.99
2022-10-26T01:25:54.413Z,99.99
2022-10-26T01:27:15.372Z,99.99
2022-10-26T01:27:54.347Z,99.99
2022-10-26T01:28:54.317Z,99.99
2022-10-26T01:30:15.279Z,99.99
2022-10-26T01:30:54.241Z,99.99
2022-10-26T01:32:15.246Z,99.99
2022-10-26T01:32:54.175Z,99.99
2022-10-26T01:33:54.143Z,99.99
2022-10-26T01:35:15.108Z,99.99
2022-10-26T01:35:54.075Z,99.99
2022-10-26T01:37:15.035Z,99.99
2022-10-26T01:37:54.006Z,99.99
2022-10-26T01:38:53.972Z,99.99
2022-10-26T01:40:14.938Z,99.99
2022-10-26T01:40:53.903Z,99.99
2022-10-26T01:42:14.870Z,99.99
2022-10-26T01:42:53.836Z,99.99
2022-10-26T01:43:53.805Z,99.99
2022-10-26T01:45:14.806Z,99.99
2022-10-26T01:45:53.760Z,99.99
2022-10-26T01:47:14.702Z,99.99
2022-10-26T01:47:53.716Z,99.99
2022-10-26T01:48:53.639Z,99.99
2022-10-26T01:50:14.600Z,99.99
2022-10-26T01:50:53.571Z,99.99
2022-10-26T01:52:14.549Z,99.99
2022-10-26T01:52:53.505Z,99.99
2022-10-26T01:53:53.467Z,99.99
2022-10-26T01:55:14.456Z,99.99
2022-10-26T01:55:53.404Z,99.99
2022-10-26T01:57:14.364Z,99.99
2022-10-26T01:57:53.331Z,99.99
2022-10-26T01:58:53.300Z,99.99
2022-10-26T02:00:14.262Z,99.99
2022-10-26T02:00:53.239Z,99.99
2022-10-26T02:02:14.227Z,99.99
2022-10-26T02:02:53.161Z,99.99
2022-10-26T02:03:53.174Z,99.99
2022-10-26T02:05:14.090Z,99.99
2022-10-26T02:05:53.061Z,99.99
2022-10-26T02:07:15.920Z,99.99
2022-10-26T02:07:53.017Z,99.99
2022-10-26T02:08:52.960Z,99.99
2022-10-26T02:10:13.921Z,99.99
2022-10-26T02:10:52.892Z,99.99
2022-10-26T02:12:13.857Z,99.99
2022-10-26T02:12:52.828Z,99.99
2022-10-26T02:13:52.791Z,99.99
2022-10-26T02:15:13.845Z,99.99
2022-10-26T02:15:52.722Z,99.99
2022-10-26T02:17:13.694Z,99.99
2022-10-26T02:17:52.658Z,99.99
2022-10-26T02:18:52.617Z,99.99
2022-10-26T02:20:13.588Z,99.99
2022-10-26T02:20:52.554Z,99.99
2022-10-26T02:22:13.570Z,99.99
2022-10-26T02:22:52.486Z,99.99
2022-10-26T02:23:52.477Z,99.99
2022-10-26T02:25:13.425Z,99.99
2022-10-26T02:25:52.386Z,99.99
2022-10-26T02:27:13.352Z,99.99
2022-10-26T02:27:52.323Z,99.99
2022-10-26T02:28:52.286Z,99.99
2022-10-26T02:30:13.247Z,99.99
2022-10-26T02:30:52.219Z,99.99
2022-10-26T02:32:13.189Z,99.99
2022-10-26T02:32:52.167Z,99.99
2022-10-26T02:33:52.132Z,99.99
2022-10-26T02:35:13.087Z,99.99
2022-10-26T02:35:52.062Z,99.99
2022-10-26T02:37:13.012Z,99.99
2022-10-26T02:37:52.109Z,99.99
2022-10-26T02:38:51.949Z,99.99
2022-10-26T02:40:12.914Z,99.99
2022-10-26T02:40:51.956Z,99.99
2022-10-26T02:42:12.854Z,99.99
2022-10-26T02:42:51.805Z,99.99
2022-10-26T02:43:51.783Z,99.99
2022-10-26T02:45:12.746Z,99.99
2022-10-26T02:45:51.713Z,99.99
2022-10-26T02:47:12.712Z,99.99
2022-10-26T02:47:51.968Z,99.99
2022-10-26T02:48:51.619Z,99.99
2022-10-26T02:50:12.577Z,99.99
2022-10-26T02:50:51.545Z,99.99
2022-10-26T02:52:12.508Z,99.99
2022-10-26T02:52:51.764Z,99.99
2022-10-26T02:53:51.444Z,99.99
2022-10-26T02:55:12.406Z,99.99
2022-10-26T02:55:51.401Z,99.99
2022-10-26T02:57:12.340Z,99.99
2022-10-26T02:57:51.313Z,99.99
2022-10-26T02:58:51.275Z,99.99
2022-10-26T03:00:12.237Z,99.99
2022-10-26T03:00:51.227Z,99.99
2022-10-26T03:02:12.168Z,99.99
2022-10-26T03:02:51.481Z,99.99
2022-10-26T03:03:51.222Z,99.99
2022-10-26T03:05:12.077Z,99.99
2022-10-26T03:05:51.041Z,99.99
2022-10-26T03:07:12.018Z,99.99
2022-10-26T03:07:50.975Z,99.99
2022-10-26T03:08:50.940Z,99.99
2022-10-26T03:10:11.923Z,99.99
2022-10-26T03:10:50.873Z,99.99
2022-10-26T03:12:11.836Z,99.99
2022-10-26T03:12:51.259Z,99.99
2022-10-26T03:13:50.777Z,99.99
2022-10-26T03:15:11.735Z,99.99
2022-10-26T03:15:50.714Z,99.99
2022-10-26T03:17:11.673Z,99.99
2022-10-26T03:17:50.934Z,99.99
2022-10-26T03:18:50.605Z,99.99
2022-10-26T03:20:11.578Z,99.99
2022-10-26T03:20:50.535Z,99.99
2022-10-26T03:22:11.574Z,99.99
2022-10-26T03:22:50.467Z,99.99
2022-10-26T03:23:50.443Z,99.99
2022-10-26T03:25:11.422Z,99.99
2022-10-26T03:25:50.372Z,99.99
2022-10-26T03:27:11.332Z,99.99
2022-10-26T03:27:50.753Z,99.99
2022-10-26T03:28:50.277Z,99.99
2022-10-26T03:30:11.235Z,99.99
2022-10-26T03:30:50.205Z,99.99
2022-10-26T03:32:11.170Z,99.99
2022-10-26T03:32:50.172Z,99.99
2022-10-26T03:33:50.110Z,99.99
2022-10-26T03:35:11.064Z,99.99
2022-10-26T03:35:50.037Z,99.99
2022-10-26T03:37:10.998Z,99.99
2022-10-26T03:37:50.417Z,99.99
2022-10-26T03:38:49.936Z,99.99
2022-10-26T03:40:10.892Z,99.99
2022-10-26T03:40:49.864Z,99.99
2022-10-26T03:42:10.837Z,99.99
2022-10-26T03:42:50.018Z,99.99
2022-10-26T03:43:49.765Z,99.99
2022-10-26T03:45:10.727Z,99.99
2022-10-26T03:45:49.698Z,99.99
2022-10-26T03:47:10.660Z,99.99
2022-10-26T03:47:49.635Z,99.99
2022-10-26T03:48:49.601Z,99.99
2022-10-26T03:50:10.568Z,99.99
2022-10-26T03:50:49.555Z,99.99
2022-10-26T03:52:10.497Z,99.99
2022-10-26T03:52:49.869Z,99.99
2022-10-26T03:53:49.434Z,99.99
2022-10-26T03:55:10.399Z,99.99
2022-10-26T03:55:49.360Z,99.99
2022-10-26T03:57:10.331Z,99.99
2022-10-26T03:57:49.298Z,99.99
2022-10-26T03:58:49.268Z,99.99
2022-10-26T04:00:10.254Z,99.99
2022-10-26T04:00:49.196Z,99.99
2022-10-26T04:02:10.156Z,99.99
2022-10-26T04:02:49.332Z,99.99
2022-10-26T04:03:49.127Z,99.99
2022-10-26T04:05:10.059Z,99.99
2022-10-26T04:05:49.035Z,99.99
2022-10-26T04:07:10.000Z,99.99
2022-10-26T04:07:49.150Z,99.99
2022-10-26T04:08:48.930Z,99.99
2022-10-26T04:10:09.892Z,99.99
2022-10-26T04:10:48.866Z,99.99
2022-10-26T04:12:09.839Z,99.99
2022-10-26T04:12:48.799Z,99.99
2022-10-26T04:13:48.758Z,99.99
2022-10-26T04:15:09.726Z,99.99
2022-10-26T04:15:48.691Z,99.99
2022-10-26T04:17:09.732Z,99.99
2022-10-26T04:17:48.968Z,99.99
2022-10-26T04:18:48.590Z,99.99
2022-10-26T04:20:09.845Z,99.99
2022-10-26T04:20:48.528Z,99.99
2022-10-26T04:22:09.492Z,99.99
2022-10-26T04:22:48.458Z,99.99
2022-10-26T04:23:48.461Z,99.99
2022-10-26T04:25:09.390Z,99.99
2022-10-26T04:25:48.362Z,99.99
2022-10-26T04:27:09.329Z,99.99
2022-10-26T04:27:48.571Z,99.99
2022-10-26T04:28:48.258Z,99.99
2022-10-26T04:30:09.226Z,99.99
2022-10-26T04:30:48.194Z,99.99
2022-10-26T04:32:09.158Z,99.99
2022-10-26T04:32:48.258Z,99.99
2022-10-26T04:33:48.095Z,99.99
2022-10-26T04:35:12.078Z,99.99
2022-10-26T04:35:48.023Z,99.99
2022-10-26T04:37:08.991Z,99.99
2022-10-26T04:37:47.958Z,99.99
2022-10-26T04:38:47.928Z,99.99
2022-10-26T04:40:08.907Z,99.99
2022-10-26T04:40:47.860Z,99.99
2022-10-26T04:42:08.824Z,99.99
2022-10-26T04:42:48.188Z,99.99
2022-10-26T04:43:47.776Z,99.99
2022-10-26T04:45:08.733Z,99.99
2022-10-26T04:45:47.693Z,99.99
2022-10-26T04:47:08.661Z,99.99
2022-10-26T04:47:47.626Z,99.99
2022-10-26T04:48:47.598Z,99.99
2022-10-26T04:50:08.558Z,99.99
2022-10-26T04:50:47.534Z,99.99
2022-10-26T04:52:08.515Z,99.99
2022-10-26T04:52:47.924Z,99.99
2022-10-26T04:53:47.441Z,99.99
2022-10-26T04:55:08.395Z,99.99
2022-10-26T04:55:47.365Z,99.99
2022-10-26T04:57:08.329Z,99.99
2022-10-26T04:57:47.639Z,99.99
2022-10-26T04:58:47.259Z,99.99
2022-10-26T05:00:08.231Z,99.99
2022-10-26T05:00:47.193Z,99.99
2022-10-26T05:02:08.262Z,99.99
2022-10-26T05:02:47.167Z,99.99
2022-10-26T05:03:47.106Z,99.99
2022-10-26T05:05:10.097Z,99.77
2022-10-26T05:05:47.030Z,99.67
2022-10-26T05:07:07.996Z,99.67
2022-10-26T05:07:47.274Z,99.96
2022-10-26T05:08:46.925Z,99.67
2022-10-26T05:10:07.914Z,99.77
2022-10-26T05:10:46.859Z,99.77
2022-10-26T05:12:07.825Z,99.77
2022-10-26T05:12:46.793Z,99.96
2022-10-26T05:13:46.756Z,99.96
2022-10-26T05:15:08.645Z,99.77
2022-10-26T05:15:46.691Z,99.99
2022-10-26T05:17:07.661Z,99.77
2022-10-26T05:17:46.907Z,99.87
2022-10-26T05:18:46.599Z,99.87
2022-10-26T05:20:07.557Z,99.67
2022-10-26T05:20:46.532Z,99.99
2022-10-26T05:22:07.521Z,99.87
2022-10-26T05:22:46.630Z,99.87
2022-10-26T05:23:46.427Z,99.87
2022-10-26T05:25:07.395Z,99.87
2022-10-26T05:25:46.364Z,99.96
2022-10-26T05:27:07.332Z,99.99
2022-10-26T05:27:46.425Z,99.77
2022-10-26T05:28:46.269Z,99.87
2022-10-26T05:30:46.200Z,99.99
2022-10-26T05:32:07.157Z,99.87
2022-10-26T05:32:46.230Z,99.87
2022-10-26T05:33:46.090Z,99.77
2022-10-26T05:35:07.070Z,99.87
2022-10-26T05:35:46.106Z,99.87
2022-10-26T05:37:07.050Z,99.99
2022-10-26T05:37:45.959Z,99.99
2022-10-26T05:38:45.935Z,99.99
2022-10-26T05:40:06.892Z,99.96
2022-10-26T05:40:45.984Z,99.96
2022-10-26T05:42:06.828Z,99.87
2022-10-26T05:42:45.880Z,99.96
2022-10-26T05:43:45.882Z,99.96
2022-10-26T05:45:06.745Z,99.99
2022-10-26T05:45:45.702Z,99.96
2022-10-26T05:47:06.659Z,99.87
2022-10-26T05:47:45.664Z,99.99
2022-10-26T05:48:45.597Z,99.99
2022-10-26T05:50:06.555Z,99.87
2022-10-26T05:50:45.529Z,99.96
2022-10-26T05:52:06.500Z,99.99
2022-10-26T05:52:45.463Z,99.99
2022-10-26T05:53:45.464Z,99.99
2022-10-26T05:55:45.366Z,99.67
2022-10-26T05:57:06.336Z,99.99
2022-10-26T05:57:45.303Z,99.67
2022-10-26T05:58:45.275Z,99.29
2022-10-26T06:00:06.234Z,99.29
2022-10-26T06:00:45.200Z,99.58
2022-10-26T06:02:06.289Z,99.77
2022-10-26T06:02:45.171Z,99.00
2022-10-26T06:03:45.100Z,99.48
2022-10-26T06:05:06.066Z,99.10
2022-10-26T06:05:45.063Z,99.19
2022-10-26T06:07:06.006Z,99.29
2022-10-26T06:07:44.970Z,99.29
2022-10-26T06:08:44.942Z,98.14
2022-10-26T06:10:05.906Z,98.33
2022-10-26T06:10:44.871Z,98.43
2022-10-26T06:12:05.836Z,97.09
2022-10-26T06:12:44.800Z,97.38
2022-10-26T06:13:44.806Z,97.38
2022-10-26T06:15:05.732Z,96.89
2022-10-26T06:15:44.706Z,97.28
2022-10-26T06:17:05.665Z,96.42
2022-10-26T06:17:44.637Z,96.51
2022-10-26T06:18:44.599Z,96.51
2022-10-26T06:20:05.600Z,95.17
2022-10-26T06:20:44.553Z,95.17
2022-10-26T06:22:05.501Z,95.65
2022-10-26T06:22:44.475Z,95.56
2022-10-26T06:23:44.429Z,95.56
2022-10-26T06:25:06.362Z,94.89
2022-10-26T06:25:44.372Z,94.69
2022-10-26T06:27:05.332Z,95.41
2022-10-26T06:27:44.303Z,94.93
2022-10-26T06:28:46.198Z,95.03
2022-10-26T06:30:05.224Z,94.45
2022-10-26T06:30:44.201Z,94.65
2022-10-26T06:32:05.167Z,93.98
2022-10-26T06:32:44.144Z,93.59
2022-10-26T06:33:44.103Z,93.40
2022-10-26T06:35:07.242Z,93.50
2022-10-26T06:35:44.036Z,92.92
2022-10-26T06:37:05.010Z,92.35
2022-10-26T06:37:43.974Z,91.87
2022-10-26T06:38:43.939Z,92.16
2022-10-26T06:40:04.930Z,91.30
2022-10-26T06:40:43.876Z,93.12
2022-10-26T06:42:04.909Z,92.35
2022-10-26T06:42:43.796Z,92.25
2022-10-26T06:43:43.773Z,92.63
2022-10-26T06:45:04.844Z,92.06
2022-10-26T06:45:43.762Z,92.92
2022-10-26T06:47:04.668Z,93.12
2022-10-26T06:47:43.638Z,92.63
2022-10-26T06:48:43.594Z,92.25
2022-10-26T06:50:04.571Z,92.25
2022-10-26T06:50:43.533Z,92.25
2022-10-26T06:52:04.571Z,92.92
2022-10-26T06:52:43.467Z,92.16
2022-10-26T06:53:43.439Z,92.16
2022-10-26T06:55:04.400Z,91.68
2022-10-26T06:55:43.378Z,91.97
2022-10-26T06:57:04.329Z,92.35
2022-10-26T06:57:43.295Z,91.68
2022-10-26T06:58:43.261Z,91.68
2022-10-26T07:00:04.231Z,92.06
2022-10-26T07:00:43.200Z,91.77
2022-10-26T07:02:06.416Z,92.16
2022-10-26T07:02:43.186Z,92.16
2022-10-26T07:03:43.100Z,91.68
2022-10-26T07:05:04.060Z,91.58
2022-10-26T07:05:43.122Z,91.11
2022-10-26T07:07:03.996Z,91.87
2022-10-26T07:07:43.834Z,92.06
2022-10-26T07:08:42.930Z,91.87
2022-10-26T07:10:03.889Z,92.73
2022-10-26T07:10:42.864Z,93.12
2022-10-26T07:12:03.840Z,92.73
2022-10-26T07:12:42.796Z,92.92
2022-10-26T07:13:42.764Z,93.02
2022-10-26T07:15:03.783Z,92.73
2022-10-26T07:15:42.697Z,92.83
2022-10-26T07:17:03.684Z,92.92
2022-10-26T07:17:42.800Z,93.02
2022-10-26T07:18:42.616Z,93.30
2022-10-26T07:20:03.561Z,92.83
2022-10-26T07:20:42.523Z,92.83
2022-10-26T07:22:03.497Z,93.21
2022-10-26T07:22:42.458Z,93.88
2022-10-26T07:23:42.419Z,93.69
2022-10-26T07:25:03.516Z,93.35
2022-10-26T07:25:42.390Z,92.63
2022-10-26T07:27:03.323Z,93.02
2022-10-26T07:27:42.296Z,93.40
2022-10-26T07:28:42.268Z,93.74
2022-10-26T07:30:03.226Z,93.45
2022-10-26T07:30:42.182Z,93.35
2022-10-26T07:32:03.176Z,93.54
2022-10-26T07:32:42.123Z,94.02
2022-10-26T07:33:42.096Z,93.93
2022-10-26T07:35:03.057Z,94.02
2022-10-26T07:35:42.025Z,93.93
2022-10-26T07:37:02.983Z,94.69
2022-10-26T07:37:41.975Z,94.79
2022-10-26T07:38:41.918Z,94.69
2022-10-26T07:40:06.637Z,94.79
2022-10-26T07:40:41.858Z,94.69
2022-10-26T07:42:02.823Z,94.60
2022-10-26T07:42:44.229Z,94.50
2022-10-26T07:43:41.811Z,94.50
2022-10-26T07:45:02.723Z,94.50
2022-10-26T07:45:41.692Z,95.07
2022-10-26T07:47:02.734Z,94.89
2022-10-26T07:47:41.624Z,95.07
2022-10-26T07:48:41.714Z,94.98
2022-10-26T07:50:02.573Z,95.46
2022-10-26T07:50:41.537Z,95.56
2022-10-26T07:52:02.486Z,95.56
2022-10-26T07:52:41.455Z,95.36
2022-10-26T07:53:41.435Z,95.46
2022-10-26T07:55:02.384Z,95.46
2022-10-26T07:55:41.358Z,95.84
2022-10-26T07:57:02.481Z,95.65
2022-10-26T07:57:41.295Z,95.56
2022-10-26T07:58:41.261Z,95.46
2022-10-26T08:00:02.223Z,95.75
2022-10-26T08:00:41.254Z,95.27
2022-10-26T08:02:02.203Z,95.56
2022-10-26T08:02:41.123Z,95.36
2022-10-26T08:03:41.089Z,95.46
2022-10-26T08:05:02.059Z,96.32
2022-10-26T08:05:41.022Z,96.22
2022-10-26T08:07:01.990Z,95.94
2022-10-26T08:07:40.999Z,96.03
2022-10-26T08:08:44.882Z,96.32
2022-10-26T08:10:01.880Z,96.51
2022-10-26T08:10:40.855Z,95.84
2022-10-26T08:12:01.821Z,95.84
2022-10-26T08:12:40.783Z,96.03
2022-10-26T08:13:40.814Z,95.84
2022-10-26T08:15:01.729Z,95.94
2022-10-26T08:15:40.703Z,96.22
2022-10-26T08:17:01.652Z,95.84
2022-10-26T08:17:40.627Z,96.32
2022-10-26T08:18:40.590Z,96.13
2022-10-26T08:20:02.507Z,96.56
2022-10-26T08:20:40.526Z,96.56
2022-10-26T08:22:01.520Z,96.66
2022-10-26T08:22:40.466Z,96.66
2022-10-26T08:23:40.424Z,96.56
2022-10-26T08:25:01.385Z,96.84
2022-10-26T08:25:40.356Z,96.18
2022-10-26T08:27:01.369Z,97.33
2022-10-26T08:27:40.303Z,96.66
2022-10-26T08:28:40.257Z,97.23
2022-10-26T08:30:01.232Z,97.23
2022-10-26T08:30:40.193Z,97.14
2022-10-26T08:32:01.275Z,97.56
2022-10-26T08:32:40.120Z,97.23
2022-10-26T08:33:44.773Z,97.52
2022-10-26T08:35:01.052Z,97.23
2022-10-26T08:35:40.028Z,97.14
2022-10-26T08:37:00.998Z,97.28
2022-10-26T08:37:39.953Z,97.56
2022-10-26T08:38:39.932Z,96.99
2022-10-26T08:40:03.228Z,97.28
2022-10-26T08:40:39.868Z,97.28
2022-10-26T08:42:00.829Z,96.61
2022-10-26T08:42:39.797Z,97.38
2022-10-26T08:43:39.753Z,97.28
2022-10-26T08:45:00.725Z,96.99
2022-10-26T08:45:39.695Z,97.18
2022-10-26T08:47:00.664Z,97.66
2022-10-26T08:47:39.629Z,98.05
2022-10-26T08:48:39.598Z,97.56
2022-10-26T08:50:00.566Z,97.85
2022-10-26T08:50:42.053Z,97.56
2022-10-26T08:52:00.497Z,97.90
2022-10-26T08:52:39.529Z,98.00
2022-10-26T08:53:39.442Z,97.76
2022-10-26T08:55:00.395Z,98.10
2022-10-26T08:55:39.408Z,98.38
2022-10-26T08:57:00.352Z,97.81
2022-10-26T08:57:39.299Z,98.19
2022-10-26T08:58:39.277Z,97.90
2022-10-26T09:00:00.232Z,98.00
2022-10-26T09:00:39.260Z,97.71
2022-10-26T09:02:00.194Z,98.00
2022-10-26T09:02:39.151Z,98.00
2022-10-26T09:03:39.112Z,98.28
2022-10-26T09:05:00.414Z,98.38
2022-10-26T09:05:39.047Z,98.10
2022-10-26T09:07:00.081Z,98.19
2022-10-26T09:07:38.982Z,98.77
2022-10-26T09:08:38.949Z,98.48
2022-10-26T09:09:59.929Z,97.90
2022-10-26T09:10:38.889Z,98.62
2022-10-26T09:11:59.845Z,98.77
2022-10-26T09:12:38.810Z,98.28
2022-10-26T09:13:38.780Z,98.48
2022-10-26T09:14:59.782Z,98.00
2022-10-26T09:15:38.734Z,98.33
2022-10-26T09:16:59.678Z,98.91
2022-10-26T09:17:38.650Z,98.14
2022-10-26T09:18:38.665Z,98.14
2022-10-26T09:19:59.589Z,98.43
2022-10-26T09:20:38.656Z,98.33
2022-10-26T09:21:59.527Z,98.72
2022-10-26T09:22:38.494Z,99.10
2022-10-26T09:23:38.460Z,98.43
2022-10-26T09:25:02.853Z,98.62
2022-10-26T09:25:38.400Z,98.53
2022-10-26T09:26:59.400Z,98.62
2022-10-26T09:27:38.343Z,98.53
2022-10-26T09:28:38.293Z,98.62
2022-10-26T09:29:59.261Z,98.82
2022-10-26T09:30:38.240Z,98.96
2022-10-26T09:31:59.214Z,98.14
2022-10-26T09:32:38.166Z,98.38
2022-10-26T09:33:38.143Z,98.62
2022-10-26T09:34:59.127Z,98.67
2022-10-26T09:35:38.067Z,99.05
2022-10-26T09:36:59.056Z,98.58
2022-10-26T09:37:38.010Z,98.58
2022-10-26T09:38:37.974Z,98.77
2022-10-26T09:39:58.948Z,98.67
2022-10-26T09:40:37.910Z,98.00
2022-10-26T09:41:58.880Z,98.67
2022-10-26T09:42:37.844Z,98.63
2022-10-26T09:43:37.838Z,98.43
2022-10-26T09:44:58.778Z,97.86
2022-10-26T09:45:37.754Z,99.01
2022-10-26T09:46:58.722Z,98.05
2022-10-26T09:47:37.684Z,97.96
2022-10-26T09:48:37.663Z,98.10
2022-10-26T09:49:58.624Z,98.10
2022-10-26T09:50:37.598Z,98.00
2022-10-26T09:51:58.606Z,98.77
2022-10-26T09:52:37.533Z,98.77
2022-10-26T09:53:37.498Z,98.96
2022-10-26T09:54:58.466Z,99.01
2022-10-26T09:55:37.428Z,98.63
2022-10-26T09:56:58.400Z,98.44
2022-10-26T09:57:37.375Z,99.68
2022-10-26T09:58:37.339Z,98.53
2022-10-26T09:59:58.331Z,98.63
2022-10-26T10:00:37.275Z,98.77
2022-10-26T10:01:58.279Z,98.58
2022-10-26T10:02:37.229Z,98.87
2022-10-26T10:03:37.182Z,98.49
2022-10-26T10:04:58.150Z,98.92
2022-10-26T10:05:50.643Z,98.24
2022-10-26T10:06:58.094Z,98.63
2022-10-26T10:07:40.048Z,98.92
2022-10-26T10:08:37.041Z,98.29
2022-10-26T10:09:57.997Z,98.19
2022-10-26T10:10:36.965Z,98.29
2022-10-26T10:11:57.977Z,97.52
2022-10-26T10:12:36.912Z,97.24
2022-10-26T10:13:36.874Z,96.75
2022-10-26T10:14:57.830Z,96.42
2022-10-26T10:15:36.821Z,97.38
2022-10-26T10:16:57.788Z,96.51
2022-10-26T10:17:36.831Z,95.94
2022-10-26T10:18:36.716Z,95.84
2022-10-26T10:19:57.685Z,96.42
2022-10-26T10:20:36.733Z,95.94
2022-10-26T10:21:57.622Z,95.89
2022-10-26T10:22:36.599Z,96.08
2022-10-26T10:23:36.563Z,95.79
2022-10-26T10:24:57.633Z,95.31
2022-10-26T10:25:36.510Z,95.79
2022-10-26T10:26:57.474Z,95.31
2022-10-26T10:27:36.441Z,95.31
2022-10-26T10:28:36.508Z,95.11
2022-10-26T10:29:59.997Z,94.34
2022-10-26T10:30:36.354Z,94.96
2022-10-26T10:31:57.323Z,94.06
2022-10-26T10:32:39.198Z,93.23
2022-10-26T10:33:36.320Z,93.62
2022-10-26T10:34:57.241Z,94.48
2022-10-26T10:35:36.214Z,94.43
2022-10-26T10:36:57.174Z,93.95
2022-10-26T10:37:36.148Z,92.60
2022-10-26T10:38:36.115Z,92.80
2022-10-26T10:39:57.094Z,93.28
2022-10-26T10:40:36.056Z,93.71
2022-10-26T10:41:57.056Z,93.08
2022-10-26T10:42:35.996Z,92.80
2022-10-26T10:43:35.965Z,92.32
2022-10-26T10:44:57.050Z,92.55
2022-10-26T10:45:35.906Z,92.16
2022-10-26T10:46:56.882Z,91.78
2022-10-26T10:47:35.861Z,91.68
2022-10-26T10:48:38.621Z,91.78
2022-10-26T10:49:56.793Z,91.49
2022-10-26T10:50:35.756Z,91.20
2022-10-26T10:51:56.727Z,91.39
2022-10-26T10:52:35.714Z,91.11
2022-10-26T10:53:36.343Z,91.54
2022-10-26T10:54:56.782Z,91.97
2022-10-26T10:55:35.616Z,91.88
2022-10-26T10:56:56.584Z,90.62
2022-10-26T10:57:35.553Z,90.53
2022-10-26T10:58:35.522Z,90.53
2022-10-26T10:59:56.523Z,91.01
2022-10-26T11:00:35.466Z,90.91
2022-10-26T11:01:56.539Z,89.95
2022-10-26T11:02:35.444Z,90.23
2022-10-26T11:03:35.380Z,91.01
2022-10-26T11:04:56.346Z,90.72
2022-10-26T11:05:35.501Z,89.95
2022-10-26T11:06:56.295Z,90.09
2022-10-26T11:07:35.268Z,89.37
2022-10-26T11:08:35.233Z,89.47
2022-10-26T11:09:56.201Z,89.89
2022-10-26T11:10:35.190Z,90.37
2022-10-26T11:11:56.142Z,90.37
2022-10-26T11:13:35.098Z,90.23
2022-10-26T11:14:56.061Z,88.45
2022-10-26T11:15:35.037Z,88.06
2022-10-26T11:16:56.000Z,88.35
2022-10-26T11:17:34.964Z,89.12
2022-10-26T11:18:34.942Z,88.97
2022-10-26T11:19:55.914Z,89.36
2022-10-26T11:20:34.887Z,88.29
2022-10-26T11:21:55.872Z,88.49
2022-10-26T11:22:34.840Z,88.49
2022-10-26T11:23:34.798Z,87.62
2022-10-26T11:24:55.767Z,87.71
2022-10-26T11:25:34.758Z,88.01
2022-10-26T11:26:55.730Z,87.43
2022-10-26T11:27:34.681Z,87.91
2022-10-26T11:28:34.662Z,88.01
2022-10-26T11:29:55.636Z,88.39
2022-10-26T11:30:34.618Z,87.85
2022-10-26T11:31:55.572Z,87.81
2022-10-26T11:32:34.554Z,87.85
2022-10-26T11:33:34.514Z,87.08
2022-10-26T11:34:55.493Z,86.79
2022-10-26T11:35:34.463Z,86.75
2022-10-26T11:36:55.426Z,87.13
2022-10-26T11:37:34.456Z,86.75
2022-10-26T11:38:46.186Z,86.31
2022-10-26T11:39:55.347Z,86.69
2022-10-26T11:40:34.317Z,86.60
2022-10-26T11:41:55.285Z,86.11
2022-10-26T11:42:34.260Z,86.79
2022-10-26T11:43:34.243Z,86.51
2022-10-26T11:44:55.246Z,86.21
2022-10-26T11:45:34.175Z,85.93
2022-10-26T11:46:55.179Z,85.58
2022-10-26T11:47:34.132Z,85.29
2022-10-26T11:48:34.099Z,85.10
2022-10-26T11:49:55.103Z,84.86
2022-10-26T11:50:34.026Z,86.02
2022-10-26T11:51:55.004Z,85.77
2022-10-26T11:52:33.993Z,85.15
2022-10-26T11:53:33.956Z,85.73
2022-10-26T11:54:54.920Z,85.25
2022-10-26T11:55:33.898Z,85.44
2022-10-26T11:56:54.862Z,85.35
2022-10-26T11:57:33.835Z,84.95
2022-10-26T11:58:33.814Z,84.95
2022-10-26T11:59:54.856Z,84.90
2022-10-26T12:00:33.763Z,84.80
2022-10-26T12:01:54.735Z,84.80
2022-10-26T12:02:33.807Z,84.95
2022-10-26T12:03:33.668Z,85.10
2022-10-26T12:04:54.643Z,85.29
2022-10-26T12:05:33.609Z,84.90
2022-10-26T12:06:54.608Z,85.00
2022-10-26T12:07:33.574Z,85.25
2022-10-26T12:08:33.620Z,85.35
2022-10-26T12:09:54.505Z,85.25
2022-10-26T12:10:33.476Z,85.44
2022-10-26T12:11:54.442Z,85.44
2022-10-26T12:12:36.392Z,85.93
2022-10-26T12:13:33.437Z,86.51
2022-10-26T12:14:54.366Z,86.45
2022-10-26T12:15:40.357Z,86.11
2022-10-26T12:16:54.321Z,86.83
2022-10-26T12:17:33.338Z,86.21
2022-10-26T12:18:53.989Z,86.79
2022-10-26T12:19:54.237Z,87.37
2022-10-26T12:20:33.203Z,86.60
2022-10-26T12:21:54.168Z,87.47
2022-10-26T12:22:33.138Z,87.57
2022-10-26T12:23:40.915Z,86.31
2022-10-26T12:24:54.099Z,86.93
2022-10-26T12:25:33.053Z,86.55
2022-10-26T12:26:54.025Z,86.10
2022-10-26T12:27:33.006Z,85.91
2022-10-26T12:28:32.970Z,85.00
2022-10-26T12:29:53.944Z,84.90
2022-10-26T12:30:32.920Z,85.97
2022-10-26T12:31:53.901Z,85.87
2022-10-26T12:32:32.860Z,84.61
2022-10-26T12:33:32.831Z,84.42
2022-10-26T12:34:53.804Z,84.22
2022-10-26T12:35:32.779Z,84.13
2022-10-26T12:36:53.786Z,84.90
2022-10-26T12:37:32.726Z,84.42
2022-10-26T12:38:33.829Z,83.70
2022-10-26T12:39:53.671Z,83.74
2022-10-26T12:40:32.668Z,84.03
2022-10-26T12:41:53.605Z,83.64
2022-10-26T12:42:32.591Z,84.52
2022-10-26T12:43:32.607Z,84.61
2022-10-26T12:44:53.535Z,83.55
2022-10-26T12:45:32.503Z,83.55
2022-10-26T12:46:53.483Z,83.55
2022-10-26T12:47:32.453Z,83.84
2022-10-26T12:48:39.301Z,83.36
2022-10-26T12:49:53.385Z,83.16
2022-10-26T12:50:32.357Z,82.68
2022-10-26T12:51:53.369Z,83.74
2022-10-26T12:52:32.308Z,82.64
2022-10-26T12:53:32.275Z,82.78
2022-10-26T12:54:53.246Z,82.39
2022-10-26T12:55:32.224Z,81.42